createdAt,value
2023-05-10T00:01:57.640Z,98870.06
2023-05-10T00:05:59.401Z,98866.47
2023-05-10T00:10:02.248Z,98862.97
2023-05-10T00:14:04.000Z,98858.63
2023-05-10T00:18:05.668Z,98862.16
2023-05-10T00:22:07.188Z,98844.22
2023-05-10T00:26:10.029Z,98846.38
2023-05-10T00:30:11.733Z,98849.72
2023-05-10T00:34:13.240Z,98838.16
2023-05-10T00:38:14.728Z,98838.66
2023-05-10T00:42:17.540Z,98830.81
2023-05-10T00:46:19.386Z,98827.00
2023-05-10T00:50:20.956Z,98829.97
2023-05-10T00:54:22.562Z,98830.47
2023-05-10T00:58:25.422Z,98833.66
2023-05-10T01:02:27.025Z,98829.78
2023-05-10T01:06:28.739Z,98828.94
2023-05-10T01:10:30.615Z,98829.72
2023-05-10T01:14:34.124Z,98821.47
2023-05-10T01:18:39.206Z,98824.69
2023-05-10T01:22:57.001Z,98821.84
2023-05-10T01:27:27.100Z,98816.28
2023-05-10T01:31:42.976Z,98818.97
2023-05-10T01:35:51.092Z,98812.97
2023-05-10T01:40:01.362Z,98809.09
2023-05-10T01:44:10.668Z,98812.59
2023-05-10T01:48:15.191Z,98806.22
2023-05-10T01:52:23.314Z,98811.69
2023-05-10T01:56:27.377Z,98806.59
2023-05-10T02:00:30.323Z,98803.28
2023-05-10T02:04:34.049Z,98804.09
2023-05-10T02:08:37.467Z,98798.03
2023-05-10T02:12:42.887Z,98793.59
2023-05-10T02:16:45.854Z,98794.34
2023-05-10T02:20:48.030Z,98796.81
2023-05-10T02:24:51.719Z,98793.44
2023-05-10T02:28:54.521Z,98793.34
2023-05-10T02:32:57.274Z,98793.81
2023-05-10T02:37:00.480Z,98797.94
2023-05-10T02:41:06.581Z,98789.72
2023-05-10T02:45:12.549Z,98777.34
2023-05-10T02:49:14.314Z,98779.00
2023-05-10T02:53:19.352Z,98778.53
2023-05-10T02:57:27.362Z,98773.53
2023-05-10T03:01:28.972Z,98773.81
2023-05-10T03:05:30.508Z,98782.25
2023-05-10T03:09:32.688Z,98772.50
2023-05-10T03:13:40.831Z,98783.94
2023-05-10T03:17:48.680Z,98781.25
2023-05-10T03:21:53.441Z,98786.47
2023-05-10T03:25:55.319Z,98781.78
2023-05-10T03:29:58.782Z,98786.44
2023-05-10T03:34:00.312Z,98778.44
2023-05-10T03:38:01.860Z,98770.31
2023-05-10T03:42:03.419Z,98769.78
2023-05-10T03:46:06.762Z,98773.06
2023-05-10T03:50:08.939Z,98770.03
2023-05-10T03:54:10.646Z,98788.16
2023-05-10T03:58:12.307Z,98786.81
2023-05-10T04:02:15.195Z,98788.47
2023-05-10T04:06:16.751Z,98789.91
2023-05-10T04:10:18.478Z,98790.75
2023-05-10T04:14:20.201Z,98786.97
2023-05-10T04:18:23.030Z,98782.06
2023-05-10T04:22:24.506Z,98780.41
2023-05-10T04:26:26.018Z,98783.25
2023-05-10T04:30:27.525Z,98781.09
2023-05-10T04:34:30.414Z,98776.72
2023-05-10T04:38:32.099Z,98773.44
2023-05-10T04:42:33.616Z,98773.00
2023-05-10T04:46:35.254Z,98765.41
2023-05-10T04:50:38.181Z,98768.19
2023-05-10T04:54:39.678Z,98751.25
2023-05-10T04:58:41.190Z,98756.81
2023-05-10T05:02:43.794Z,98762.34
2023-05-10T05:06:46.629Z,98754.66
2023-05-10T05:10:49.117Z,98760.19
2023-05-10T05:14:50.582Z,98753.66
2023-05-10T05:18:52.067Z,98772.31
2023-05-10T05:22:54.917Z,98775.63
2023-05-10T05:26:56.389Z,98777.59
2023-05-10T05:30:57.878Z,98764.47
2023-05-10T05:34:59.402Z,98766.16
2023-05-10T05:39:02.217Z,98765.91
2023-05-10T05:43:03.682Z,98767.00
2023-05-10T05:47:05.680Z,98772.53
2023-05-10T05:51:07.368Z,98770.91
2023-05-10T05:55:10.526Z,98778.59
2023-05-10T05:59:12.447Z,98789.03
2023-05-10T06:03:13.998Z,98789.88
2023-05-10T06:07:15.535Z,98788.50
2023-05-10T06:11:18.353Z,98779.19
2023-05-10T06:15:19.849Z,98791.53
2023-05-10T06:19:21.355Z,98786.81
2023-05-10T06:23:22.835Z,98797.81
2023-05-10T06:27:25.673Z,98796.13
2023-05-10T06:31:27.324Z,98799.66
2023-05-10T06:35:29.079Z,98796.06
2023-05-10T06:39:30.551Z,98795.75
2023-05-10T06:43:33.386Z,98798.19
2023-05-10T06:47:36.541Z,98800.34
2023-05-10T06:51:40.190Z,98800.31
2023-05-10T06:55:41.704Z,98806.34
2023-05-10T06:59:45.229Z,98808.72
2023-05-10T07:03:46.716Z,98820.50
2023-05-10T07:07:48.317Z,98802.00
2023-05-10T07:11:49.792Z,98801.63
2023-05-10T07:15:52.649Z,98800.97
2023-05-10T07:19:54.152Z,98807.16
2023-05-10T07:23:55.685Z,98800.06
2023-05-10T07:27:57.158Z,98796.75
2023-05-10T07:32:00.023Z,98802.78
2023-05-10T07:36:01.820Z,98803.63
2023-05-10T07:40:03.578Z,98804.09
2023-05-10T07:44:05.329Z,98799.66
2023-05-10T07:48:08.213Z,98802.25
2023-05-10T07:52:09.769Z,98791.06
2023-05-10T07:56:22.587Z,98807.38
2023-05-10T08:00:24.085Z,98803.50
2023-05-10T08:04:26.971Z,98793.69
2023-05-10T08:08:28.519Z,98802.19
2023-05-10T08:12:30.066Z,98805.09
2023-05-10T08:16:31.724Z,98800.72
2023-05-10T08:20:34.605Z,98804.47
2023-05-10T08:24:36.076Z,98804.31
2023-05-10T08:28:37.547Z,98812.00
2023-05-10T08:32:39.076Z,98809.25
2023-05-10T08:36:41.955Z,98821.72
2023-05-10T08:40:45.116Z,98823.94
2023-05-10T08:44:49.690Z,98822.53
2023-05-10T08:48:52.381Z,98825.66
2023-05-10T08:52:58.561Z,98830.94
2023-05-10T08:57:00.200Z,98835.53
2023-05-10T09:01:02.216Z,98843.53
2023-05-10T09:05:04.342Z,98842.28
2023-05-10T09:09:07.442Z,98851.44
2023-05-10T09:13:10.921Z,98850.72
2023-05-10T09:17:12.665Z,98851.53
2023-05-10T09:21:14.895Z,98857.81
2023-05-10T09:25:18.107Z,98846.19
2023-05-10T09:29:19.935Z,98847.41
2023-05-10T09:33:21.581Z,98856.44
2023-05-10T09:37:30.347Z,98857.81
2023-05-10T09:41:34.132Z,98850.97
2023-05-10T09:45:38.566Z,98856.44
2023-05-10T09:49:42.555Z,98859.88
2023-05-10T09:53:44.152Z,98853.28
2023-05-10T09:57:47.274Z,98849.28
2023-05-10T10:01:50.694Z,98849.78
2023-05-10T10:05:52.210Z,98851.41
2023-05-10T10:09:54.263Z,98836.50
2023-05-10T10:13:57.109Z,98846.56
2023-05-10T10:17:59.006Z,98850.47
2023-05-10T10:22:01.332Z,98839.97
2023-05-10T10:26:03.768Z,98842.28
2023-05-10T10:30:16.782Z,98836.22
2023-05-10T10:34:26.983Z,98839.78
2023-05-10T10:38:37.653Z,98838.44
2023-05-10T10:42:46.061Z,98840.16
2023-05-10T10:47:04.945Z,98841.97
2023-05-10T10:51:06.772Z,98849.16
2023-05-10T10:55:10.525Z,98845.72
2023-05-10T10:59:12.027Z,98848.34
2023-05-10T11:03:14.883Z,98845.41
2023-05-10T11:07:20.269Z,98847.72
2023-05-10T11:11:21.812Z,98847.66
2023-05-10T11:15:29.873Z,98851.88
2023-05-10T11:19:32.763Z,98844.69
2023-05-10T11:23:49.725Z,98844.75
2023-05-10T11:27:51.124Z,98843.69
2023-05-10T11:31:52.646Z,98853.41
2023-05-10T11:35:55.476Z,98862.31
2023-05-10T11:39:56.970Z,98845.22
2023-05-10T11:43:59.470Z,98856.53
2023-05-10T11:48:02.298Z,98853.56
2023-05-10T11:52:08.851Z,98848.66
2023-05-10T11:56:11.268Z,98848.06
2023-05-10T12:00:13.696Z,98849.66
2023-05-10T12:04:15.484Z,98856.97
2023-05-10T12:08:23.359Z,98859.78
2023-05-10T12:12:24.897Z,98861.91
2023-05-10T12:16:29.658Z,98858.66
2023-05-10T12:20:31.201Z,98861.34
2023-05-10T12:24:36.293Z,98853.41
2023-05-10T12:28:38.790Z,98860.16
2023-05-10T12:32:41.311Z,98865.31
2023-05-10T12:36:42.841Z,98870.03
2023-05-10T12:40:45.717Z,98860.59
2023-05-10T12:44:47.221Z,98875.22
2023-05-10T12:48:48.731Z,98876.91
2023-05-10T12:52:50.227Z,98882.22
2023-05-10T12:56:53.070Z,98880.59
2023-05-10T13:00:54.759Z,98898.78
2023-05-10T13:04:56.400Z,98902.03
2023-05-10T13:08:57.922Z,98896.75
2023-05-10T13:13:00.821Z,98897.56
2023-05-10T13:17:02.359Z,98900.34
2023-05-10T13:21:04.195Z,98905.06
2023-05-10T13:25:06.340Z,98909.25
2023-05-10T13:29:09.539Z,98910.53
2023-05-10T13:33:11.030Z,98897.59
2023-05-10T13:37:12.527Z,98902.00
2023-05-10T13:41:14.007Z,98908.56
2023-05-10T13:45:17.005Z,98899.34
2023-05-10T13:49:18.603Z,98897.28
2023-05-10T13:53:20.105Z,98892.22
2023-05-10T13:57:21.666Z,98894.03
2023-05-10T14:01:24.630Z,98897.47
2023-05-10T14:05:26.690Z,98902.31
2023-05-10T14:09:28.356Z,98894.25
2023-05-10T14:13:29.978Z,98895.38
2023-05-10T14:17:32.911Z,98900.72
2023-05-10T14:21:34.412Z,98886.72
2023-05-10T14:25:36.339Z,98888.56
2023-05-10T14:29:37.826Z,98881.28
2023-05-10T14:33:40.670Z,98887.47
2023-05-10T14:37:42.147Z,98894.50
2023-05-10T14:41:43.624Z,98887.97
2023-05-10T14:45:45.220Z,98889.09
2023-05-10T14:49:48.093Z,98888.53
2023-05-10T14:53:49.651Z,98884.63
2023-05-10T14:57:51.127Z,98885.03
2023-05-10T15:01:52.740Z,98892.50
2023-05-10T15:05:56.129Z,98894.47
2023-05-10T15:09:57.600Z,98896.00
2023-05-10T15:13:59.159Z,98899.66
2023-05-10T15:18:00.757Z,98898.63
2023-05-10T15:22:04.843Z,98906.50
2023-05-10T15:26:06.371Z,98899.91
2023-05-10T15:30:08.984Z,98893.66
2023-05-10T15:34:10.507Z,98907.03
2023-05-10T15:38:13.372Z,98896.91
2023-05-10T15:42:14.890Z,98910.44
2023-05-10T15:46:16.453Z,98906.88
2023-05-10T15:50:18.062Z,98912.13
2023-05-10T15:54:20.937Z,98917.53
2023-05-10T15:58:22.551Z,98921.63
2023-05-10T16:02:24.177Z,98927.25
2023-05-10T16:06:25.726Z,98926.63
2023-05-10T16:10:31.870Z,98928.03
2023-05-10T16:14:33.344Z,98932.91
2023-05-10T16:18:35.196Z,98938.19
2023-05-10T16:22:36.844Z,98939.50
2023-05-10T16:26:39.699Z,98944.41
2023-05-10T16:30:41.237Z,98945.03
2023-05-10T16:34:42.788Z,98943.47
2023-05-10T16:38:44.261Z,98943.16
2023-05-10T16:42:47.324Z,98947.31
2023-05-10T16:46:48.887Z,98949.03
2023-05-10T16:50:50.465Z,98954.81
2023-05-10T16:54:54.100Z,98951.72
2023-05-10T16:58:56.924Z,98959.03
2023-05-10T17:02:58.534Z,98971.28
2023-05-10T17:07:00.054Z,98970.03
2023-05-10T17:11:01.670Z,98972.22
2023-05-10T17:15:05.934Z,98976.69
2023-05-10T17:19:08.142Z,98976.97
2023-05-10T17:23:09.685Z,98984.66
2023-05-10T17:27:11.238Z,98993.34
2023-05-10T17:31:14.181Z,98996.28
2023-05-10T17:35:16.150Z,98997.31
2023-05-10T17:39:17.875Z,98998.06
2023-05-10T17:43:20.410Z,98997.75
2023-05-10T17:47:23.282Z,99011.63
2023-05-10T17:51:24.882Z,99010.53
2023-05-10T17:55:26.378Z,99016.88
2023-05-10T17:59:27.917Z,99011.44
2023-05-10T18:03:30.721Z,99009.50
2023-05-10T18:07:32.214Z,99020.69
2023-05-10T18:11:34.896Z,99011.91
2023-05-10T18:15:36.453Z,99019.38
2023-05-10T18:19:39.633Z,99025.81
2023-05-10T18:23:41.098Z,99032.56
2023-05-10T18:27:42.594Z,99033.41
2023-05-10T18:31:44.149Z,99036.75
2023-05-10T18:35:47.099Z,99038.72
2023-05-10T18:39:48.621Z,99037.91
2023-05-10T18:43:50.091Z,99033.25
2023-05-10T18:47:51.614Z,99048.72
2023-05-10T18:51:54.582Z,99051.50
2023-05-10T18:55:56.422Z,99053.13
2023-05-10T18:59:57.902Z,99056.50
2023-05-10T19:03:59.436Z,99064.50
2023-05-10T19:08:02.281Z,99062.63
2023-05-10T19:12:04.004Z,99067.06
2023-05-10T19:16:06.464Z,99073.72
2023-05-10T19:20:08.572Z,99078.19
2023-05-10T19:24:11.968Z,99081.78
2023-05-10T19:28:13.527Z,99087.81
2023-05-10T19:32:15.246Z,99075.97
2023-05-10T19:36:16.742Z,99086.97
2023-05-10T19:40:19.650Z,99092.50
2023-05-10T19:44:21.168Z,99087.00
2023-05-10T19:48:22.651Z,99101.28
2023-05-10T19:52:24.135Z,99090.28
2023-05-10T19:56:26.979Z,99089.72
2023-05-10T20:00:28.679Z,99088.06
2023-05-10T20:04:30.163Z,99086.41
2023-05-10T20:08:31.668Z,99093.56
2023-05-10T20:12:34.496Z,99089.44
2023-05-10T20:16:36.027Z,99081.97
2023-05-10T20:20:37.544Z,99090.69
2023-05-10T20:24:39.040Z,99085.06
2023-05-10T20:28:41.849Z,99082.97
2023-05-10T20:32:43.519Z,99101.25
2023-05-10T20:36:45.032Z,99089.31
2023-05-10T20:40:46.598Z,99091.16
2023-05-10T20:44:49.838Z,99091.41
2023-05-10T20:48:51.326Z,99093.88
2023-05-10T20:52:52.803Z,99097.59
2023-05-10T20:56:54.296Z,99096.69
2023-05-10T21:00:57.207Z,99095.34
2023-05-10T21:04:59.587Z,99098.66
2023-05-10T21:09:01.189Z,99098.06
2023-05-10T21:13:02.708Z,99100.13
2023-05-10T21:17:05.565Z,99096.81
2023-05-10T21:21:07.115Z,99097.94
2023-05-10T21:25:09.386Z,99095.72
2023-05-10T21:29:10.881Z,99097.78
2023-05-10T21:33:13.795Z,99098.22
2023-05-10T21:37:15.663Z,99103.59
2023-05-10T21:41:17.223Z,99104.53
2023-05-10T21:45:19.850Z,99106.22
2023-05-10T21:49:22.712Z,99105.78
2023-05-10T21:53:24.220Z,99111.50
2023-05-10T21:57:25.701Z,99112.44
2023-05-10T22:01:27.354Z,99112.19
2023-05-10T22:05:30.359Z,99117.09
2023-05-10T22:09:31.837Z,99114.41
2023-05-10T22:13:33.304Z,99114.66
2023-05-10T22:17:34.838Z,99107.88
2023-05-10T22:21:37.680Z,99114.34
2023-05-10T22:25:39.190Z,99114.41
2023-05-10T22:29:40.679Z,99117.28
2023-05-10T22:33:42.178Z,99118.19
2023-05-10T22:37:45.070Z,99112.53
2023-05-10T22:41:46.605Z,99113.34
2023-05-10T22:45:48.081Z,99109.97
2023-05-10T22:49:49.640Z,99114.59
2023-05-10T22:53:52.459Z,99095.78
2023-05-10T22:57:54.137Z,99113.72
2023-05-10T23:01:55.757Z,99109.53
2023-05-10T23:05:57.254Z,99118.16
2023-05-10T23:10:00.082Z,99117.34
2023-05-10T23:14:01.592Z,99123.47
2023-05-10T23:18:03.129Z,99120.50
2023-05-10T23:22:04.602Z,99122.56
2023-05-10T23:26:07.421Z,99126.50
2023-05-10T23:30:09.872Z,99121.81
2023-05-10T23:34:11.399Z,99117.91
2023-05-10T23:38:12.896Z,99115.59
2023-05-10T23:42:15.733Z,99117.44
2023-05-10T23:46:17.284Z,99124.53
2023-05-10T23:50:18.969Z,99122.53
2023-05-10T23:54:20.649Z,99121.78
2023-05-10T23:58:24.572Z,99119.34
